Stolt Surf — ZCSR3 — position and weather

sailwx.info

Track history (hours):
 
Tides and Currents Weather Stations Pressure Air Temp Water Temp Dewpoint Dewpoint Depression Visibility Wind Speed Wind Dir Waves Ship Positions

Stolt Surf

Last reported at 2015-Jun-03 20:23 UTC. Time now 2015-Jul-03 07:52 UTC.
Position N 29°21' W 094°47'.
Warning: this ship's position is 29 days out of date.

Length 163 m; draft 10.9 m.

Type: Ship. MMSI: 319545000.

Date/timePositionNaut miles runAvg speedWind from/ knotsBaromVisibWave heightAir tempDewpointWater temp
2015-Jun-03 20:23N 29°21' W 094°47'1012.2
2015-Jun-03 19:34N 29°30' W 094°52'9 9.1
2015-Jun-03 18:33N 29°37' W 094°60'1 1.1
2015-Jun-03 17:28N 29°37' W 095°01'0 0.0
2015-Jun-03 16:28N 29°37' W 095°01'0 0.0
2015-Jun-03 14:22N 29°37' W 095°01'0 0.0
2015-Jun-03 11:16N 29°37' W 095°01'0 0.0
2015-Jun-03 09:28N 29°37' W 095°01'0 0.0
2015-Jun-03 08:10N 29°37' W 095°01'0 0.0
2015-Jun-03 07:28N 29°37' W 095°01'0 0.0
2015-Jun-03 04:07N 29°37' W 095°01'0 0.0
2015-Jun-03 00:10N 29°37' W 095°01'0 0.0
2015-Jun-02 23:10N 29°37' W 095°01'0 0.0
2015-Jun-02 22:28N 29°37' W 095°01'0 0.0
2015-Jun-02 21:22N 29°37' W 095°01'0 0.0
2015-Jun-02 20:22N 29°37' W 095°01'0 0.0
2015-Jun-02 19:04N 29°37' W 095°01'0 0.0
2015-Jun-02 18:28N 29°37' W 095°01'0 0.0
2015-Jun-02 17:28N 29°37' W 095°01'0 0.0
2015-Jun-02 16:34N 29°37' W 095°01'0 0.0
2015-Jun-02 15:28N 29°37' W 095°01'0 0.0
2015-Jun-02 14:04N 29°37' W 095°01'0 0.0
2015-Jun-02 13:28N 29°37' W 095°01'0 0.0
2015-Jun-02 12:10N 29°37' W 095°01'0 0.0
2015-Jun-02 11:22N 29°37' W 095°01'0 0.0
2015-Jun-02 10:28N 29°37' W 095°01'0 0.0
2015-Jun-02 09:28N 29°37' W 095°01'0 0.0
2015-Jun-02 08:10N 29°37' W 095°01'0 0.0
2015-Jun-02 05:34N 29°37' W 095°01'0 0.0
2015-Jun-02 02:28N 29°37' W 095°01'0 0.0
2015-Jun-02 01:34N 29°37' W 095°01'0 0.0
2015-Jun-02 00:28N 29°37' W 095°01'0 0.0
2015-Jun-01 23:16N 29°37' W 095°01'0 0.0
2015-Jun-01 22:22N 29°37' W 095°01'0 0.0
2015-Jun-01 21:28N 29°37' W 095°01'0 0.0
2015-Jun-01 20:22N 29°37' W 095°01'0 0.0
2015-Jun-01 19:22N 29°37' W 095°01'0 0.0
2015-Jun-01 18:22N 29°37' W 095°01'0 0.0
2015-Jun-01 17:22N 29°37' W 095°01'0 0.0
2015-Jun-01 16:28N 29°37' W 095°01'0 0.0
2015-Jun-01 15:31N 29°37' W 095°01'0 0.0
2015-Jun-01 14:25N 29°37' W 095°01'0 0.0
2015-Jun-01 13:34N 29°37' W 095°01'0 0.0
2015-Jun-01 12:28N 29°37' W 095°01'0 0.0
2015-Jun-01 11:28N 29°37' W 095°01'0 0.0
2015-Jun-01 10:28N 29°37' W 095°01'0 0.0
2015-Jun-01 09:28N 29°37' W 095°01'0 0.0
2015-Jun-01 08:28N 29°37' W 095°01'0 0.0
2015-Jun-01 06:28N 29°37' W 095°01'0 0.0
2015-Jun-01 05:28N 29°37' W 095°01'0 0.0
2015-Jun-01 02:25N 29°37' W 095°01'0 0.0
2015-Jun-01 01:28N 29°37' W 095°01'0 0.0
2015-Jun-01 00:28N 29°37' W 095°01'0 0.0
2015-May-31 23:28N 29°37' W 095°01'0 0.0
2015-May-31 22:28N 29°37' W 095°01'0 0.0
2015-May-31 21:28N 29°37' W 095°01'0 0.0
2015-May-31 20:25N 29°37' W 095°01'0 0.0
2015-May-31 19:13N 29°37' W 095°01'0 0.0
2015-May-31 18:22N 29°37' W 095°01'0 0.0
2015-May-31 17:31N 29°37' W 095°01'0 0.0
2015-May-31 16:16N 29°37' W 095°01'0 0.0
2015-May-31 15:31N 29°37' W 095°01'0 0.0
2015-May-31 13:10N 29°37' W 095°01'0 0.0
2015-May-31 11:04N 29°37' W 095°01'0 0.0
2015-May-31 10:19N 29°37' W 095°01'0 0.0
2015-May-31 09:31N 29°37' W 095°01'0 0.0
2015-May-31 08:22N 29°37' W 095°01'0 0.5
2015-May-31 07:33N 29°37' W 095°01'8 8.0
2015-May-31 06:33N 29°32' W 094°54'1211.6
2015-May-31 05:33N 29°21' W 094°47'1111.0
2015-May-31 04:31N 29°18' W 094°35'2 0.1
2015-May-29 17:12N 29°19' W 094°33'0 0.0
2015-May-29 16:33N 29°19' W 094°33'0 0.0
2015-May-29 15:33N 29°19' W 094°33'  
Track history (hours):
 
Tides and Currents Weather Stations Pressure Air Temp Water Temp Dewpoint Dewpoint Depression Visibility Wind Speed Wind Dir Waves Ship Positions

Stolt Surf

Last reported at 2015-Jun-03 20:23 UTC. Time now 2015-Jul-03 07:52 UTC.
Position N 29°21' W 094°47'.
Warning: this ship's position is 29 days out of date.

Length 163 m; draft 10.9 m.

Type: Ship. MMSI: 319545000.

Date/timePositionNaut miles runAvg speedWind from/ knotsBaromVisibWave heightAir tempDewpointWater temp
2015-Jun-03 20:23N 29°21' W 094°47'1012.2
2015-Jun-03 19:34N 29°30' W 094°52'9 9.1
2015-Jun-03 18:33N 29°37' W 094°60'1 1.1
2015-Jun-03 17:28N 29°37' W 095°01'0 0.0
2015-Jun-03 16:28N 29°37' W 095°01'0 0.0
2015-Jun-03 14:22N 29°37' W 095°01'0 0.0
2015-Jun-03 11:16N 29°37' W 095°01'0 0.0
2015-Jun-03 09:28N 29°37' W 095°01'0 0.0
2015-Jun-03 08:10N 29°37' W 095°01'0 0.0
2015-Jun-03 07:28N 29°37' W 095°01'0 0.0
2015-Jun-03 04:07N 29°37' W 095°01'0 0.0
2015-Jun-03 00:10N 29°37' W 095°01'0 0.0
2015-Jun-02 23:10N 29°37' W 095°01'0 0.0
2015-Jun-02 22:28N 29°37' W 095°01'0 0.0
2015-Jun-02 21:22N 29°37' W 095°01'0 0.0
2015-Jun-02 20:22N 29°37' W 095°01'0 0.0
2015-Jun-02 19:04N 29°37' W 095°01'0 0.0
2015-Jun-02 18:28N 29°37' W 095°01'0 0.0
2015-Jun-02 17:28N 29°37' W 095°01'0 0.0
2015-Jun-02 16:34N 29°37' W 095°01'0 0.0
2015-Jun-02 15:28N 29°37' W 095°01'0 0.0
2015-Jun-02 14:04N 29°37' W 095°01'0 0.0
2015-Jun-02 13:28N 29°37' W 095°01'0 0.0
2015-Jun-02 12:10N 29°37' W 095°01'0 0.0
2015-Jun-02 11:22N 29°37' W 095°01'0 0.0
2015-Jun-02 10:28N 29°37' W 095°01'0 0.0
2015-Jun-02 09:28N 29°37' W 095°01'0 0.0
2015-Jun-02 08:10N 29°37' W 095°01'0 0.0
2015-Jun-02 05:34N 29°37' W 095°01'0 0.0
2015-Jun-02 02:28N 29°37' W 095°01'0 0.0
2015-Jun-02 01:34N 29°37' W 095°01'0 0.0
2015-Jun-02 00:28N 29°37' W 095°01'0 0.0
2015-Jun-01 23:16N 29°37' W 095°01'0 0.0
2015-Jun-01 22:22N 29°37' W 095°01'0 0.0
2015-Jun-01 21:28N 29°37' W 095°01'0 0.0
2015-Jun-01 20:22N 29°37' W 095°01'0 0.0
2015-Jun-01 19:22N 29°37' W 095°01'0 0.0
2015-Jun-01 18:22N 29°37' W 095°01'0 0.0
2015-Jun-01 17:22N 29°37' W 095°01'0 0.0
2015-Jun-01 16:28N 29°37' W 095°01'0 0.0
2015-Jun-01 15:31N 29°37' W 095°01'0 0.0
2015-Jun-01 14:25N 29°37' W 095°01'0 0.0
2015-Jun-01 13:34N 29°37' W 095°01'0 0.0
2015-Jun-01 12:28N 29°37' W 095°01'0 0.0
2015-Jun-01 11:28N 29°37' W 095°01'0 0.0
2015-Jun-01 10:28N 29°37' W 095°01'0 0.0
2015-Jun-01 09:28N 29°37' W 095°01'0 0.0
2015-Jun-01 08:28N 29°37' W 095°01'0 0.0
2015-Jun-01 06:28N 29°37' W 095°01'0 0.0
2015-Jun-01 05:28N 29°37' W 095°01'0 0.0
2015-Jun-01 02:25N 29°37' W 095°01'0 0.0
2015-Jun-01 01:28N 29°37' W 095°01'0 0.0
2015-Jun-01 00:28N 29°37' W 095°01'0 0.0
2015-May-31 23:28N 29°37' W 095°01'0 0.0
2015-May-31 22:28N 29°37' W 095°01'0 0.0
2015-May-31 21:28N 29°37' W 095°01'0 0.0
2015-May-31 20:25N 29°37' W 095°01'0 0.0
2015-May-31 19:13N 29°37' W 095°01'0 0.0
2015-May-31 18:22N 29°37' W 095°01'0 0.0
2015-May-31 17:31N 29°37' W 095°01'0 0.0
2015-May-31 16:16N 29°37' W 095°01'0 0.0
2015-May-31 15:31N 29°37' W 095°01'0 0.0
2015-May-31 13:10N 29°37' W 095°01'0 0.0
2015-May-31 11:04N 29°37' W 095°01'0 0.0
2015-May-31 10:19N 29°37' W 095°01'0 0.0
2015-May-31 09:31N 29°37' W 095°01'0 0.0
2015-May-31 08:22N 29°37' W 095°01'0 0.5
2015-May-31 07:33N 29°37' W 095°01'8 8.0
2015-May-31 06:33N 29°32' W 094°54'1211.6
2015-May-31 05:33N 29°21' W 094°47'1111.0
2015-May-31 04:31N 29°18' W 094°35'2 0.1
2015-May-29 17:12N 29°19' W 094°33'0 0.0
2015-May-29 16:33N 29°19' W 094°33'0 0.0
2015-May-29 15:33N 29°19' W 094°33'  

Dump ship's entire track history